Time;durP1;ratioP1;P1;durP2;ratioP2;P2;SDS_P1;SDS_P2;PMS_P1;PMS_P2;Temp;Humidity;BMP_temperature;BMP_pressure;BME280_temperature;BME280_humidity;BME280_pressure;Samples;Min_cycle;Max_cycle;Signal;HPM_P1;HPM_P2
2023/07/22 00:02:24;;;;;;;2.65;1.10;;;13.40;99.90;;;;;;6332883;22;20002;-85
2023/07/22 00:04:52;;;;;;;3.38;1.38;;;13.40;99.90;;;;;;6358465;22;20018;-86
2023/07/22 00:07:18;;;;;;;2.50;1.25;;;13.50;99.90;;;;;;6386453;22;20055;-86
2023/07/22 00:09:44;;;;;;;2.20;1.27;;;13.40;99.90;;;;;;6359450;22;20014;-86
2023/07/22 00:12:10;;;;;;;2.05;1.00;;;13.40;99.90;;;;;;6360049;22;20065;-87
2023/07/22 00:14:40;;;;;;;2.63;1.00;;;13.40;99.90;;;;;;6361913;22;20018;-86
2023/07/22 00:17:06;;;;;;;2.20;0.80;;;13.40;99.90;;;;;;6363421;22;20049;-86
2023/07/22 00:19:32;;;;;;;2.65;1.27;;;13.40;99.90;;;;;;6392911;22;20021;-86
2023/07/22 00:21:58;;;;;;;2.92;1.38;;;13.40;99.90;;;;;;6389561;22;20015;-86
2023/07/22 00:24:24;;;;;;;2.40;1.00;;;13.40;99.90;;;;;;6330625;22;20029;-86
2023/07/22 00:26:52;;;;;;;3.35;1.02;;;13.40;99.90;;;;;;6384758;22;20014;-86
2023/07/22 00:29:18;;;;;;;1.55;0.88;;;13.40;99.90;;;;;;6331065;22;20026;-85
2023/07/22 00:31:44;;;;;;;1.75;0.82;;;13.30;99.90;;;;;;6335968;22;20066;-86
2023/07/22 00:34:10;;;;;;;3.28;0.88;;;13.30;99.90;;;;;;6363289;22;20045;-86
2023/07/22 00:36:37;;;;;;;1.80;0.93;;;13.30;99.90;;;;;;6334806;22;20014;-86
2023/07/22 00:39:09;;;;;;;2.78;1.20;;;13.20;99.90;;;;;;6359022;22;20014;-86
2023/07/22 00:41:34;;;;;;;2.10;0.80;;;13.20;99.90;;;;;;6355815;22;20018;-85
2023/07/22 00:44:00;;;;;;;1.40;0.70;;;13.10;99.90;;;;;;6353920;22;20492;-87
2023/07/22 00:46:26;;;;;;;1.58;0.73;;;13.10;99.90;;;;;;6328294;22;20093;-86
2023/07/22 00:48:53;;;;;;;2.17;1.00;;;13.10;99.90;;;;;;6357742;22;20014;-85
2023/07/22 00:51:20;;;;;;;2.53;0.85;;;13.10;99.90;;;;;;6330458;22;20015;-86
2023/07/22 00:53:46;;;;;;;2.55;1.00;;;13.00;99.90;;;;;;6383736;22;20014;-85
2023/07/22 00:56:12;;;;;;;1.83;0.80;;;13.00;99.90;;;;;;6330782;22;20102;-85
2023/07/22 00:58:44;;;;;;;2.22;0.85;;;13.00;99.90;;;;;;6383237;22;20016;-85
2023/07/22 01:01:10;;;;;;;2.55;1.00;;;13.00;99.90;;;;;;6353816;22;20026;-85
2023/07/22 01:03:36;;;;;;;2.88;0.80;;;12.90;99.90;;;;;;6329136;22;20010;-85
2023/07/22 01:06:02;;;;;;;3.78;1.00;;;12.90;99.90;;;;;;6355642;22;20382;-86
2023/07/22 01:08:28;;;;;;;5.03;1.23;;;12.90;99.90;;;;;;6350727;22;20042;-86
2023/07/22 01:10:54;;;;;;;2.25;1.15;;;12.90;99.90;;;;;;6348470;22;20018;-86
2023/07/22 01:13:20;;;;;;;2.38;1.00;;;12.90;99.90;;;;;;6371118;22;20018;-86
2023/07/22 01:15:46;;;;;;;1.95;0.80;;;12.80;99.90;;;;;;6370973;22;20019;-86
2023/07/22 01:18:12;;;;;;;1.70;0.80;;;12.80;99.90;;;;;;6316660;22;20018;-85
2023/07/22 01:20:40;;;;;;;1.85;0.70;;;12.80;99.90;;;;;;6342246;22;20047;-86
2023/07/22 01:23:07;;;;;;;2.22;1.17;;;12.80;99.90;;;;;;6333037;22;20014;-85
2023/07/22 01:25:33;;;;;;;2.35;0.90;;;12.80;99.90;;;;;;6368680;22;20022;-85
2023/07/22 01:27:59;;;;;;;3.85;1.00;;;12.70;99.90;;;;;;6342646;22;20010;-86
2023/07/22 01:30:27;;;;;;;1.63;0.80;;;12.70;99.90;;;;;;6368301;22;20049;-85
2023/07/22 01:32:53;;;;;;;3.22;0.85;;;12.70;99.90;;;;;;6370349;22;20018;-86
2023/07/22 01:35:21;;;;;;;2.47;0.70;;;12.70;99.90;;;;;;6368971;22;20068;-86
2023/07/22 01:37:47;;;;;;;3.15;1.00;;;12.60;99.90;;;;;;6341857;22;20429;-85
2023/07/22 01:40:14;;;;;;;2.45;1.02;;;12.60;99.90;;;;;;6370019;22;20050;-85
2023/07/22 01:42:43;;;;;;;2.42;1.10;;;12.60;99.90;;;;;;6368149;22;20022;-85
2023/07/22 01:45:10;;;;;;;2.88;1.00;;;12.70;99.90;;;;;;6342172;22;20370;-86
2023/07/22 01:47:37;;;;;;;2.03;1.00;;;12.50;99.90;;;;;;6368186;22;20516;-85
2023/07/22 01:50:04;;;;;;;3.47;0.90;;;12.60;99.90;;;;;;6368124;22;20018;-85
2023/07/22 01:52:30;;;;;;;2.50;1.08;;;12.60;99.90;;;;;;6368054;22;20101;-86
2023/07/22 01:54:58;;;;;;;2.65;1.10;;;12.50;99.90;;;;;;6341435;22;20057;-85
2023/07/22 01:57:24;;;;;;;2.28;0.80;;;12.70;99.90;;;;;;6369706;22;20045;-86
2023/07/22 01:59:50;;;;;;;2.53;1.08;;;12.50;99.90;;;;;;6367798;22;20071;-86
2023/07/22 02:02:16;;;;;;;2.22;0.80;;;12.50;99.90;;;;;;6368035;22;20382;-86
2023/07/22 02:04:42;;;;;;;1.45;0.70;;;12.50;99.90;;;;;;6367814;22;20025;-85
2023/07/22 02:07:08;;;;;;;2.58;0.88;;;12.50;99.90;;;;;;6369899;22;20404;-85
2023/07/22 02:09:37;;;;;;;1.73;0.80;;;12.40;99.90;;;;;;6367770;22;20346;-85
2023/07/22 02:12:03;;;;;;;1.58;0.77;;;12.50;99.90;;;;;;6369542;22;20348;-85
2023/07/22 02:14:29;;;;;;;2.70;1.10;;;12.40;99.90;;;;;;6369931;22;20014;-85
2023/07/22 02:16:54;;;;;;;2.45;1.00;;;12.40;99.90;;;;;;6367691;22;20014;-85
2023/07/22 02:19:20;;;;;;;1.80;0.75;;;12.40;99.90;;;;;;6367821;22;20046;-85
2023/07/22 02:21:46;;;;;;;2.25;0.70;;;12.40;99.90;;;;;;6341739;22;20014;-86
2023/07/22 02:24:15;;;;;;;1.90;0.98;;;12.30;99.90;;;;;;6341459;22;20021;-85
2023/07/22 02:26:40;;;;;;;2.83;0.90;;;12.30;99.90;;;;;;6341385;22;20026;-85
2023/07/22 02:29:07;;;;;;;1.60;0.63;;;12.30;99.90;;;;;;6342455;22;20403;-86
2023/07/22 02:31:33;;;;;;;1.35;0.80;;;12.30;99.90;;;;;;6343504;22;20085;-86
2023/07/22 02:34:02;;;;;;;5.53;0.90;;;12.20;99.90;;;;;;6343333;22;20056;-86
2023/07/22 02:36:28;;;;;;;1.83;0.80;;;12.20;99.90;;;;;;6371502;22;20329;-85
2023/07/22 02:38:53;;;;;;;2.53;0.82;;;12.20;99.90;;;;;;6317154;22;20022;-86
2023/07/22 02:41:21;;;;;;;1.63;0.70;;;12.20;99.90;;;;;;6371439;22;20025;-86
2023/07/22 02:43:47;;;;;;;2.72;0.70;;;12.20;99.90;;;;;;6371569;22;20063;-86
2023/07/22 02:46:13;;;;;;;4.05;0.80;;;12.20;99.90;;;;;;6343084;22;20011;-86
2023/07/22 02:48:39;;;;;;;2.03;0.80;;;12.10;99.90;;;;;;6343270;22;20017;-86
2023/07/22 02:51:08;;;;;;;1.38;0.75;;;12.10;99.90;;;;;;6371607;22;20901;-86
2023/07/22 02:53:38;;;;;;;2.22;0.88;;;12.50;99.90;;;;;;6343531;22;20445;-85
2023/07/22 02:56:04;;;;;;;2.63;0.93;;;12.10;99.90;;;;;;6317222;22;20119;-86
2023/07/22 02:58:30;;;;;;;1.85;0.80;;;12.00;99.90;;;;;;6343754;22;20006;-86
2023/07/22 03:00:59;;;;;;;2.67;0.80;;;12.00;99.90;;;;;;6343040;22;20489;-86
2023/07/22 03:03:25;;;;;;;2.05;0.90;;;12.00;99.90;;;;;;6371281;22;20050;-87
2023/07/22 03:05:53;;;;;;;2.13;0.80;;;12.00;99.90;;;;;;6343133;22;20045;-86
2023/07/22 03:08:19;;;;;;;2.92;0.98;;;12.00;99.90;;;;;;6343441;22;20014;-86
2023/07/22 03:10:48;;;;;;;1.30;0.60;;;12.00;99.90;;;;;;6343138;22;20044;-86
2023/07/22 03:13:19;;;;;;;2.95;1.35;;;12.00;99.90;;;;;;6342924;22;20014;-86
2023/07/22 03:15:45;;;;;;;2.63;0.90;;;11.90;99.90;;;;;;6370794;22;20093;-86
2023/07/22 03:18:11;;;;;;;3.22;0.70;;;11.90;99.90;;;;;;6343217;22;20049;-86
2023/07/22 03:20:41;;;;;;;2.17;0.88;;;11.90;99.90;;;;;;6317369;22;20093;-85
2023/07/22 03:23:07;;;;;;;1.80;0.82;;;11.80;99.90;;;;;;6334262;22;20465;-85
2023/07/22 03:25:36;;;;;;;2.58;0.60;;;11.90;99.90;;;;;;6369224;22;20014;-85
2023/07/22 03:28:06;;;;;;;1.60;0.70;;;11.90;99.90;;;;;;6343323;22;20440;-85
2023/07/22 03:30:33;;;;;;;2.22;1.00;;;11.90;99.90;;;;;;6371062;22;20025;-86
2023/07/22 03:33:00;;;;;;;1.92;0.80;;;11.90;99.90;;;;;;6371359;22;20069;-85
2023/07/22 03:35:26;;;;;;;2.70;0.80;;;11.90;99.90;;;;;;6371071;22;20015;-86
2023/07/22 03:37:55;;;;;;;3.15;0.80;;;11.90;99.90;;;;;;6368974;22;20071;-86
2023/07/22 03:40:26;;;;;;;0.90;0.60;;;11.40;99.90;;;;;;6342848;22;20049;-85
2023/07/22 03:42:53;;;;;;;1.77;0.60;;;11.90;99.90;;;;;;6343063;22;20018;-86
2023/07/22 03:45:20;;;;;;;2.00;0.75;;;11.90;99.90;;;;;;6369081;22;20010;-85
2023/07/22 03:47:50;;;;;;;2.95;0.70;;;11.80;99.90;;;;;;6369802;22;20010;-86
2023/07/22 03:50:15;;;;;;;2.67;0.70;;;11.90;99.90;;;;;;6369556;22;20081;-86
2023/07/22 03:52:41;;;;;;;2.15;0.65;;;12.30;99.90;;;;;;6370359;22;20049;-86
2023/07/22 03:55:07;;;;;;;2.22;0.60;;;11.90;99.90;;;;;;6371217;22;20049;-86
2023/07/22 03:57:34;;;;;;;1.50;0.60;;;11.90;99.90;;;;;;6343058;22;20093;-87
2023/07/22 04:00:00;;;;;;;2.35;0.88;;;11.90;99.90;;;;;;6369248;22;20021;-86
2023/07/22 04:02:26;;;;;;;2.95;1.20;;;11.90;99.90;;;;;;6369044;22;20513;-86
2023/07/22 04:04:55;;;;;;;4.70;1.27;;;12.00;99.90;;;;;;6370524;22;20444;-87
2023/07/22 04:07:22;;;;;;;2.67;1.13;;;12.00;99.90;;;;;;6370423;22;20050;-86
2023/07/22 04:09:50;;;;;;;6.13;1.05;;;12.00;99.90;;;;;;6368839;22;20014;-86
2023/07/22 04:12:19;;;;;;;3.95;1.17;;;12.10;99.90;;;;;;6342909;22;20444;-87
2023/07/22 04:14:45;;;;;;;3.13;1.35;;;12.10;99.90;;;;;;6370798;22;20022;-86
2023/07/22 04:17:15;;;;;;;2.97;1.05;;;12.20;99.90;;;;;;6368764;22;20117;-86
2023/07/22 04:19:42;;;;;;;2.15;0.93;;;12.20;99.90;;;;;;6368218;22;20075;-86
2023/07/22 04:22:08;;;;;;;2.30;1.02;;;12.30;99.90;;;;;;6370235;22;20030;-86
2023/07/22 04:24:34;;;;;;;1.92;1.00;;;12.80;99.90;;;;;;6342309;22;20507;-86
2023/07/22 04:27:01;;;;;;;3.05;0.85;;;12.30;99.90;;;;;;6370615;22;20014;-86
2023/07/22 04:29:27;;;;;;;3.70;0.90;;;12.40;99.90;;;;;;6316438;22;20018;-87
2023/07/22 04:31:59;;;;;;;1.70;0.80;;;12.40;99.90;;;;;;6342840;22;20085;-86
2023/07/22 04:34:29;;;;;;;1.52;0.70;;;12.50;99.90;;;;;;6342034;22;20468;-86
2023/07/22 04:36:55;;;;;;;1.83;0.60;;;12.50;99.90;;;;;;6343039;22;20014;-85
2023/07/22 04:39:21;;;;;;;1.60;0.60;;;12.50;99.90;;;;;;6342457;22;20336;-86
2023/07/22 04:41:51;;;;;;;2.17;0.80;;;12.60;99.90;;;;;;6315911;22;20102;-87
2023/07/22 04:44:17;;;;;;;1.73;0.70;;;12.60;99.90;;;;;;6342581;22;20011;-85
2023/07/22 04:46:43;;;;;;;1.50;0.70;;;12.70;99.90;;;;;;6342783;22;20053;-85
2023/07/22 04:49:09;;;;;;;1.38;0.60;;;12.70;99.90;;;;;;6341901;22;20333;-85
2023/07/22 04:51:35;;;;;;;3.75;0.77;;;12.80;99.90;;;;;;6341766;22;20018;-86
2023/07/22 04:54:00;;;;;;;2.53;0.50;;;12.90;99.90;;;;;;6370395;22;20014;-85
2023/07/22 04:56:30;;;;;;;1.23;0.40;;;12.90;99.90;;;;;;6316274;22;20021;-85
2023/07/22 04:58:58;;;;;;;1.92;0.47;;;13.00;99.90;;;;;;6342991;22;20019;-85
2023/07/22 05:01:24;;;;;;;2.15;0.70;;;13.10;99.90;;;;;;6315562;22;20110;-85
2023/07/22 05:03:53;;;;;;;1.60;0.68;;;13.10;99.90;;;;;;6341925;22;20356;-85
2023/07/22 05:06:19;;;;;;;1.27;0.60;;;13.10;99.90;;;;;;6370270;22;20018;-85
2023/07/22 05:08:45;;;;;;;4.15;0.70;;;13.20;99.90;;;;;;6369758;22;20007;-85
2023/07/22 05:11:10;;;;;;;2.63;0.70;;;13.20;99.90;;;;;;6315860;22;20028;-85
2023/07/22 05:13:36;;;;;;;1.58;0.73;;;13.20;99.90;;;;;;6341982;22;20021;-85
2023/07/22 05:16:02;;;;;;;2.67;0.73;;;13.30;99.90;;;;;;6341442;22;20015;-85
2023/07/22 05:18:28;;;;;;;1.98;0.70;;;13.30;99.90;;;;;;6342415;22;20022;-85
2023/07/22 05:20:54;;;;;;;2.10;0.60;;;13.30;99.90;;;;;;6341981;22;20098;-85
2023/07/22 05:23:20;;;;;;;2.10;0.70;;;13.30;99.90;;;;;;6331876;22;20015;-87
2023/07/22 05:25:52;;;;;;;1.98;0.50;;;13.30;99.90;;;;;;6370293;22;20023;-85
2023/07/22 05:28:18;;;;;;;2.67;0.70;;;13.30;99.90;;;;;;6368305;22;20021;-85
2023/07/22 05:30:44;;;;;;;1.50;0.60;;;13.40;99.90;;;;;;6368407;22;20022;-85
2023/07/22 05:33:09;;;;;;;4.05;0.95;;;13.50;99.90;;;;;;6368346;22;20089;-85
2023/07/22 05:35:38;;;;;;;1.80;0.80;;;13.50;99.90;;;;;;6370034;22;20046;-85
2023/07/22 05:38:04;;;;;;;2.58;1.33;;;13.60;99.90;;;;;;6368331;22;20340;-85
2023/07/22 05:40:30;;;;;;;1.80;1.00;;;13.70;99.90;;;;;;6369281;22;20345;-85
2023/07/22 05:42:56;;;;;;;3.17;1.17;;;13.80;99.90;;;;;;6368460;22;20022;-86
2023/07/22 05:45:22;;;;;;;3.40;1.17;;;14.00;99.90;;;;;;6367287;22;20014;-85
2023/07/22 05:47:48;;;;;;;2.90;1.67;;;14.30;99.90;;;;;;6342180;22;20140;-84
2023/07/22 05:50:13;;;;;;;2.75;1.17;;;14.10;99.90;;;;;;6342175;22;20439;-85
2023/07/22 05:52:39;;;;;;;3.35;1.10;;;14.20;99.90;;;;;;6342170;22;20018;-85
2023/07/22 05:55:05;;;;;;;2.40;1.30;;;14.30;99.90;;;;;;6367697;22;20452;-85
2023/07/22 05:57:31;;;;;;;4.60;1.77;;;14.40;99.90;;;;;;6369298;22;20070;-85
2023/07/22 05:59:57;;;;;;;5.18;2.08;;;14.50;99.90;;;;;;6368309;22;20018;-86
2023/07/22 06:02:23;;;;;;;3.28;1.45;;;14.60;99.90;;;;;;6341596;22;20025;-86
2023/07/22 06:04:48;;;;;;;3.30;1.33;;;14.70;99.90;;;;;;6370340;22;20014;-86
2023/07/22 06:07:14;;;;;;;3.08;1.67;;;14.90;99.90;;;;;;6369780;22;20021;-85
2023/07/22 06:09:40;;;;;;;3.60;1.30;;;15.00;99.90;;;;;;6369697;22;20053;-85
2023/07/22 06:12:06;;;;;;;3.58;1.50;;;15.10;99.90;;;;;;6371459;22;20025;-85
2023/07/22 06:14:32;;;;;;;3.47;1.70;;;15.20;99.90;;;;;;6369465;22;20014;-86
2023/07/22 06:16:57;;;;;;;3.60;1.73;;;15.30;99.90;;;;;;6370251;22;20025;-85
2023/07/22 06:19:24;;;;;;;5.40;2.30;;;15.40;99.90;;;;;;6343877;22;20014;-85
2023/07/22 06:21:50;;;;;;;6.32;2.60;;;15.60;99.90;;;;;;6343392;22;20022;-84
2023/07/22 06:24:16;;;;;;;4.28;2.35;;;15.60;99.90;;;;;;6370040;22;20034;-85
2023/07/22 06:26:41;;;;;;;3.95;2.17;;;15.70;99.90;;;;;;6369792;22;20038;-85
2023/07/22 06:29:07;;;;;;;4.35;2.60;;;15.80;99.90;;;;;;6369472;22;20074;-85
2023/07/22 06:31:33;;;;;;;5.40;2.35;;;15.80;99.90;;;;;;6370509;22;20066;-86
2023/07/22 06:33:59;;;;;;;4.28;2.08;;;15.90;99.90;;;;;;6371878;22;20014;-84
2023/07/22 06:36:26;;;;;;;5.35;2.42;;;15.90;99.90;;;;;;6369636;22;20042;-85
2023/07/22 06:38:52;;;;;;;6.10;2.35;;;16.00;99.90;;;;;;6369251;22;20143;-85
2023/07/22 06:41:18;;;;;;;4.10;1.90;;;16.00;99.90;;;;;;6369611;22;20041;-85
2023/07/22 06:43:55;;;;;;;5.13;2.28;;;16.00;99.90;;;;;;6369799;22;20453;-89
2023/07/22 06:46:46;;;;;;;3.58;1.83;;;16.10;99.90;;;;;;6369498;22;20097;-89
2023/07/22 06:49:35;;;;;;;3.65;2.10;;;16.20;99.90;;;;;;6343349;22;20093;-91
2023/07/22 06:52:31;;;;;;;4.05;1.75;;;16.30;99.90;;;;;;6371439;22;20071;-88
2023/07/22 06:55:19;;;;;;;6.15;2.13;;;16.40;99.90;;;;;;6369059;22;20053;-91
2023/07/22 06:58:05;;;;;;;;;;;;;;;;;;;;;
2023/07/22 07:00:37;;;;;;;3.20;1.70;;;16.50;99.90;;;;;;6364498;22;20018;-88
2023/07/22 07:03:06;;;;;;;3.88;2.10;;;16.70;99.90;;;;;;6343721;22;20456;-88
2023/07/22 07:05:32;;;;;;;3.97;1.92;;;16.90;99.90;;;;;;6372075;22;20014;-91
2023/07/22 07:08:00;;;;;;;3.05;1.77;;;17.00;99.90;;;;;;6369407;22;20014;-87
2023/07/22 07:10:29;;;;;;;4.57;2.30;;;17.20;99.90;;;;;;6343297;22;20014;-88
2023/07/22 07:13:22;;;;;;;4.28;2.30;;;17.50;99.90;;;;;;6369483;22;20021;-92
2023/07/22 07:16:57;;;;;;;4.93;2.17;;;17.40;99.90;;;;;;6342196;22;20130;-92
2023/07/22 07:25:06;;;;;;;;;;;;;;;;;;;;;
2023/07/22 07:28:38;;;;;;;7.95;3.15;;;17.70;99.90;;;;;;5988910;23;20032;-92
2023/07/22 07:45:31;;;;;;;4.95;2.75;;;17.80;99.90;;;;;;6222255;22;20059;-85
2023/07/22 07:47:57;;;;;;;4.95;2.58;;;17.90;99.90;;;;;;6311144;22;20018;-83
2023/07/22 07:50:22;;;;;;;4.20;2.40;;;17.90;99.90;;;;;;6311569;22;20068;-85
2023/07/22 07:52:48;;;;;;;5.53;2.75;;;18.00;99.90;;;;;;6312027;22;20053;-83
2023/07/22 07:55:14;;;;;;;9.10;3.58;;;18.10;99.90;;;;;;6339157;22;20061;-82
2023/07/22 07:57:40;;;;;;;4.88;2.72;;;18.00;99.90;;;;;;6339631;22;20015;-85
2023/07/22 08:00:08;;;;;;;7.78;3.28;;;18.10;99.90;;;;;;6311353;22;20057;-84
2023/07/22 08:02:35;;;;;;;4.68;2.38;;;18.20;99.90;;;;;;6339015;22;20093;-84
2023/07/22 08:05:01;;;;;;;4.05;2.22;;;18.20;99.90;;;;;;6311637;22;20015;-84
2023/07/22 08:07:27;;;;;;;5.22;2.03;;;18.30;99.90;;;;;;6312144;22;20015;-85
2023/07/22 08:09:52;;;;;;;4.65;2.67;;;18.50;99.90;;;;;;6311639;22;20011;-85
2023/07/22 08:12:18;;;;;;;4.63;2.72;;;18.40;99.90;;;;;;6311941;22;20336;-83
2023/07/22 08:14:44;;;;;;;5.85;3.00;;;18.60;99.90;;;;;;6339314;22;20038;-84
2023/07/22 08:17:10;;;;;;;6.75;2.75;;;18.90;99.90;;;;;;6310998;22;20341;-83
2023/07/22 08:19:36;;;;;;;4.93;2.28;;;18.90;99.90;;;;;;6338790;22;20027;-83
2023/07/22 08:22:02;;;;;;;4.13;2.25;;;19.00;99.90;;;;;;6339097;22;20025;-82
2023/07/22 08:24:28;;;;;;;5.18;2.35;;;19.20;99.90;;;;;;6311261;22;20338;-83
2023/07/22 08:26:53;;;;;;;6.32;2.88;;;19.20;99.90;;;;;;6338807;22;20441;-84
2023/07/22 08:29:19;;;;;;;6.25;2.42;;;19.40;99.90;;;;;;6338782;22;20079;-83
2023/07/22 08:31:45;;;;;;;5.50;2.35;;;19.50;99.90;;;;;;6310918;22;20428;-83
2023/07/22 08:34:11;;;;;;;5.50;2.13;;;19.40;99.90;;;;;;6311234;22;20010;-83
2023/07/22 08:36:36;;;;;;;3.80;2.20;;;19.40;99.90;;;;;;6311100;22;20072;-82
2023/07/22 08:39:03;;;;;;;4.32;2.25;;;19.40;99.90;;;;;;6311291;22;20361;-82
2023/07/22 08:41:30;;;;;;;3.53;1.85;;;19.30;99.90;;;;;;6338854;22;20103;-82
2023/07/22 08:43:59;;;;;;;5.93;2.72;;;19.40;99.90;;;;;;6338849;22;20084;-82
2023/07/22 08:46:28;;;;;;;4.05;1.95;;;19.30;99.90;;;;;;6310816;22;20019;-81
2023/07/22 08:48:54;;;;;;;5.28;2.97;;;19.30;99.90;;;;;;6338706;22;20029;-82
2023/07/22 08:51:23;;;;;;;5.40;2.22;;;19.20;99.90;;;;;;6310459;22;20333;-86
2023/07/22 08:53:50;;;;;;;3.85;2.05;;;19.30;99.90;;;;;;6310947;22;20015;-86
2023/07/22 08:56:16;;;;;;;4.30;2.10;;;19.30;99.90;;;;;;6284901;22;20022;-86
2023/07/22 08:58:43;;;;;;;5.97;2.05;;;19.20;99.90;;;;;;6310636;22;20010;-86
2023/07/22 09:01:09;;;;;;;4.20;1.83;;;19.30;99.90;;;;;;6311113;22;20337;-90
2023/07/22 09:03:36;;;;;;;5.45;1.73;;;19.30;99.90;;;;;;6311404;22;20019;-85
2023/07/22 09:06:04;;;;;;;5.03;2.58;;;19.50;99.90;;;;;;6311688;22;20070;-87
2023/07/22 09:08:30;;;;;;;4.20;1.80;;;19.60;99.90;;;;;;6339449;22;20075;-89
2023/07/22 09:10:56;;;;;;;3.47;1.60;;;19.60;99.90;;;;;;6312731;22;20023;-86
2023/07/22 09:13:23;;;;;;;2.83;1.70;;;19.80;99.90;;;;;;6313444;22;20050;-88
2023/07/22 09:15:50;;;;;;;3.95;2.03;;;20.00;99.90;;;;;;6316514;22;20355;-86
2023/07/22 09:18:16;;;;;;;4.57;1.70;;;20.00;99.90;;;;;;6316273;22;20022;-88
2023/07/22 09:20:42;;;;;;;3.20;1.63;;;20.00;99.90;;;;;;6310990;22;20026;-89
2023/07/22 09:23:08;;;;;;;3.13;1.42;;;19.80;99.90;;;;;;6311004;22;20015;-86
2023/07/22 09:25:34;;;;;;;6.78;1.60;;;19.80;99.90;;;;;;6283542;22;20069;-86
2023/07/22 09:28:00;;;;;;;3.58;1.30;;;19.60;99.90;;;;;;6339338;22;20337;-88
2023/07/22 09:30:34;;;;;;;2.85;1.55;;;19.50;99.90;;;;;;6310581;22;20400;-85
2023/07/22 09:33:04;;;;;;;3.00;1.88;;;19.50;99.90;;;;;;6284998;22;20019;-84
2023/07/22 09:35:48;;;;;;;2.75;1.50;;;19.30;99.90;;;;;;6338894;22;20033;-86
2023/07/22 09:38:17;;;;;;;2.53;1.33;;;19.20;99.90;;;;;;6312367;22;20387;-86
2023/07/22 09:40:42;;;;;;;4.10;1.50;;;19.10;99.90;;;;;;6340159;22;20046;-85
2023/07/22 09:43:14;;;;;;;2.28;1.30;;;18.90;99.90;;;;;;6312304;22;20510;-86
2023/07/22 09:45:39;;;;;;;3.40;1.25;;;18.80;99.90;;;;;;6313080;22;20018;-86
2023/07/22 09:48:05;;;;;;;2.47;1.50;;;18.70;99.90;;;;;;6313653;22;20022;-85
2023/07/22 09:50:32;;;;;;;3.10;1.33;;;18.60;99.90;;;;;;6313318;22;20050;-88
2023/07/22 09:52:59;;;;;;;4.22;1.77;;;18.60;99.90;;;;;;6313460;22;20026;-85
2023/07/22 09:55:28;;;;;;;4.57;1.52;;;18.40;99.90;;;;;;6312291;22;20143;-83
2023/07/22 09:57:55;;;;;;;4.72;2.17;;;18.30;99.90;;;;;;6340043;22;20018;-85
2023/07/22 10:00:23;;;;;;;4.80;2.38;;;17.90;99.90;;;;;;6312148;22;20076;-85
2023/07/22 10:02:49;;;;;;;5.45;1.95;;;17.90;99.90;;;;;;6340391;22;20318;-85
2023/07/22 10:05:25;;;;;;;3.95;1.70;;;17.70;99.90;;;;;;6312585;22;20022;-85
2023/07/22 10:07:58;;;;;;;3.50;1.63;;;17.50;99.90;;;;;;6312222;22;20019;-85
2023/07/22 10:10:32;;;;;;;5.55;2.28;;;17.50;99.90;;;;;;6312562;22;20033;-86
2023/07/22 10:12:58;;;;;;;5.22;2.13;;;17.50;99.90;;;;;;6312182;22;20048;-83
2023/07/22 10:15:50;;;;;;;4.20;1.83;;;17.50;99.90;;;;;;6312346;22;20078;-89
2023/07/22 10:18:25;;;;;;;3.58;1.80;;;17.40;99.90;;;;;;6340127;22;20015;-89
2023/07/22 10:53:37;;;;;;;3.08;1.80;;;17.60;99.90;;;;;;6339607;22;20031;-89
2023/07/22 10:56:19;;;;;;;3.20;1.70;;;17.50;99.90;;;;;;6286849;22;20084;-88
2023/07/22 10:58:44;;;;;;;2.83;1.58;;;17.50;99.90;;;;;;6312189;22;20050;-86
2023/07/22 11:01:28;;;;;;;2.95;1.70;;;17.50;99.90;;;;;;6311501;22;20068;-87
2023/07/22 11:04:12;;;;;;;4.85;2.22;;;17.50;99.90;;;;;;6340009;22;20021;-85
2023/07/22 11:06:45;;;;;;;4.47;1.90;;;17.30;99.90;;;;;;6312620;22;20022;-86
2023/07/22 11:09:49;;;;;;;;;;;;;;;;;;;;;
2023/07/22 11:13:24;;;;;;;;;;;;;;;;;;;;;
2023/07/22 11:22:44;;;;;;;;;;;;;;;;;;;;;
2023/07/22 11:26:05;;;;;;;;;;;;;;;;;;;;;
2023/07/22 11:28:41;;;;;;;3.80;1.80;;;17.10;99.90;;;;;;6213635;23;20027;-89
2023/07/22 11:45:52;;;;;;;2.42;1.15;;;17.00;99.90;;;;;;6368174;22;20026;-88
2023/07/22 11:48:19;;;;;;;2.33;1.00;;;17.00;99.90;;;;;;6371372;22;20019;-89
2023/07/22 11:50:58;;;;;;;3.33;0.82;;;17.00;99.90;;;;;;6343044;22;20048;-88
2023/07/22 11:53:29;;;;;;;1.92;1.05;;;17.00;99.90;;;;;;6343316;22;20022;-89
2023/07/22 11:55:59;;;;;;;1.90;1.10;;;17.10;99.90;;;;;;6342863;22;20025;-91
2023/07/22 11:58:36;;;;;;;1.95;1.20;;;17.10;99.90;;;;;;6319483;22;20022;-89
2023/07/22 12:01:16;;;;;;;2.45;1.25;;;17.10;99.90;;;;;;6345369;22;20054;-90
2023/07/22 12:03:42;;;;;;;1.90;1.10;;;17.10;99.90;;;;;;6343628;22;20344;-88
2023/07/22 12:06:08;;;;;;;2.55;1.40;;;17.10;99.90;;;;;;6342792;22;20018;-88
2023/07/22 12:08:51;;;;;;;3.05;1.02;;;17.10;99.90;;;;;;6343369;22;20011;-89
2023/07/22 12:11:51;;;;;;;2.75;1.15;;;17.20;99.90;;;;;;6342815;22;20020;-89
2023/07/22 12:14:22;;;;;;;2.55;1.30;;;17.30;99.90;;;;;;6341465;22;20021;-90
2023/07/22 12:16:57;;;;;;;2.88;1.58;;;17.40;99.90;;;;;;6343034;22;20089;-89
2023/07/22 12:20:06;;;;;;;4.30;1.50;;;17.50;99.90;;;;;;6316845;22;20096;-90
2023/07/22 12:22:31;;;;;;;2.47;1.52;;;17.50;99.90;;;;;;6187809;23;20586;-90
2023/07/22 12:24:57;;;;;;;3.30;1.70;;;17.50;99.90;;;;;;6187617;23;20044;-89
2023/07/22 12:27:23;;;;;;;3.05;1.60;;;17.40;99.90;;;;;;6187862;23;20375;-88
2023/07/22 12:29:49;;;;;;;3.55;1.40;;;17.50;99.90;;;;;;6187842;23;20135;-88
2023/07/22 12:32:17;;;;;;;3.85;2.25;;;17.50;99.90;;;;;;6163035;23;20092;-89
2023/07/22 12:34:43;;;;;;;3.45;2.08;;;17.60;99.90;;;;;;6190444;23;20059;-89
2023/07/22 12:37:11;;;;;;;3.72;2.30;;;17.50;99.90;;;;;;6188424;23;20047;-88
2023/07/22 12:39:37;;;;;;;2.88;2.03;;;17.40;99.90;;;;;;6188019;23;20123;-83
2023/07/22 12:42:03;;;;;;;2.72;1.80;;;17.20;99.90;;;;;;6187440;23;20111;-84
2023/07/22 12:44:30;;;;;;;4.38;1.60;;;17.10;99.90;;;;;;6212072;23;20013;-84
2023/07/22 12:46:55;;;;;;;3.22;1.88;;;17.00;99.90;;;;;;6212204;23;20078;-87
2023/07/22 12:49:21;;;;;;;3.17;1.90;;;17.00;99.90;;;;;;6162784;23;20064;-84
2023/07/22 12:51:47;;;;;;;4.72;2.35;;;16.90;99.90;;;;;;6187521;23;20055;-84
2023/07/22 12:54:12;;;;;;;3.58;1.88;;;16.80;99.90;;;;;;6187340;23;20020;-83
2023/07/22 12:56:38;;;;;;;2.13;1.63;;;17.00;99.90;;;;;;6187330;23;20399;-84
2023/07/22 12:59:03;;;;;;;2.95;1.70;;;17.00;99.90;;;;;;6305916;22;20014;-84
2023/07/22 13:01:29;;;;;;;4.03;2.00;;;17.10;99.90;;;;;;6369754;22;20021;-84
2023/07/22 13:03:55;;;;;;;5.25;2.25;;;17.20;99.90;;;;;;6369946;22;20018;-84
2023/07/22 13:06:20;;;;;;;3.95;1.63;;;17.40;99.90;;;;;;6341940;22;20424;-84
2023/07/22 13:08:46;;;;;;;3.97;1.80;;;17.50;99.90;;;;;;6341946;22;20026;-85
2023/07/22 13:11:12;;;;;;;3.40;1.67;;;17.60;99.90;;;;;;6341815;22;20094;-84
2023/07/22 13:13:38;;;;;;;3.38;1.70;;;17.70;99.90;;;;;;6341886;22;20018;-85
2023/07/22 13:16:03;;;;;;;3.83;2.35;;;18.00;99.90;;;;;;6315607;22;20010;-84
2023/07/22 13:18:29;;;;;;;3.15;1.88;;;18.20;99.90;;;;;;6342550;22;20071;-84
2023/07/22 13:20:55;;;;;;;3.92;1.67;;;18.50;99.90;;;;;;6342559;22;20018;-85
2023/07/22 13:23:20;;;;;;;5.43;2.17;;;18.70;99.90;;;;;;6342321;22;20021;-86
2023/07/22 13:25:46;;;;;;;3.65;2.40;;;19.00;99.90;;;;;;6369552;22;20345;-85
2023/07/22 13:28:12;;;;;;;3.80;2.10;;;19.10;99.90;;;;;;6341660;22;20014;-85
2023/07/22 13:30:37;;;;;;;3.53;2.38;;;19.20;99.90;;;;;;6342469;22;20075;-86
2023/07/22 13:33:03;;;;;;;3.40;2.30;;;19.30;99.90;;;;;;6342125;22;20016;-86
2023/07/22 13:35:30;;;;;;;2.25;1.85;;;19.40;99.90;;;;;;6370232;22;20086;-86
2023/07/22 13:37:55;;;;;;;3.70;1.95;;;19.40;99.90;;;;;;6341657;22;20010;-86
2023/07/22 13:40:21;;;;;;;3.47;2.00;;;19.50;99.90;;;;;;6341696;22;20140;-86
2023/07/22 13:42:47;;;;;;;6.72;2.80;;;19.60;99.90;;;;;;6341623;22;20071;-87
2023/07/22 13:45:13;;;;;;;4.35;2.38;;;19.70;99.90;;;;;;6369605;22;20085;-85
2023/07/22 13:47:38;;;;;;;4.70;2.70;;;19.60;99.90;;;;;;6369416;22;20023;-86
2023/07/22 13:50:06;;;;;;;4.60;2.88;;;19.70;99.90;;;;;;6369692;22;20019;-85
2023/07/22 13:52:31;;;;;;;3.92;1.88;;;19.60;99.90;;;;;;6369865;22;20067;-86
2023/07/22 13:54:57;;;;;;;5.43;2.95;;;19.50;99.90;;;;;;6369723;22;20045;-86
2023/07/22 13:57:23;;;;;;;6.10;2.80;;;19.40;99.90;;;;;;6342209;22;20422;-87
2023/07/22 13:59:48;;;;;;;3.28;1.98;;;19.40;99.90;;;;;;6341398;22;20021;-86
2023/07/22 14:02:14;;;;;;;2.83;2.08;;;19.20;99.90;;;;;;6368854;22;20023;-85
2023/07/22 14:04:40;;;;;;;4.78;2.10;;;19.10;99.90;;;;;;6367229;22;20041;-86
2023/07/22 14:07:06;;;;;;;5.75;2.28;;;19.00;99.90;;;;;;6315365;22;20374;-86
2023/07/22 14:09:31;;;;;;;5.32;2.65;;;18.80;99.90;;;;;;6369821;22;20301;-85
2023/07/22 14:11:57;;;;;;;4.47;1.88;;;18.70;99.90;;;;;;6314861;22;20066;-87
2023/07/22 14:14:28;;;;;;;6.07;2.63;;;18.60;99.90;;;;;;6341425;22;20097;-85
2023/07/22 14:16:55;;;;;;;4.28;2.45;;;18.40;99.90;;;;;;6341588;22;20018;-85